PGUA/UAM METAR and TAF weather

Enter ICAO airport designator
Station Type Date Time Source
PGUA METAR 2022/06/28 08:56 UTC NOAA

PGUA 280856Z AUTO 00000KT 10SM FEW013 26/23 A2982 RMK AO2 SLP088 T02610227 53001 $


Station Type Date Time Source
PGUA Decoded METAR 2022/06/28 08:56 UTC NOAA

Andersen, Mariana Is, Andersen Air Force Base, GU, United States (PGUA) 13-35N 144-56E 187M
Jun 28, 2022 - 04:56 AM EDT / 2022.06.28 0856 UTC
Wind: Calm:0
Visibility: 10 mile(s):0
Sky conditions: mostly clear
Temperature: 79.0 F (26.1 C)
Dew Point: 72.9 F (22.7 C)
Relative Humidity: 81%
Pressure (altimeter): 29.82 in. Hg (1009 hPa)
Pressure tendency: 0.00 inches (0.1 hPa) higher than three hours ago
ob: PGUA 280856Z AUTO 00000KT 10SM FEW013 26/23 A2982 RMK AO2 SLP088 T02610227 53001
cycle: 9

Station Type Date Time Source
PGUA TAF 2022/06/28 02:09 UTC NOAA

TAF TAF PGUA 280200Z 2802/2908 13009KT 9999 SCT016 SCT050 BKN190 QNH2981INS
TEMPO 2802/2818 13010G15KT 8000 -SHRA BKN014 TX29/2803Z TN24/2816Z

Example: see airport list